• Join FlightAware (Why Join?)
  • Login
  • US Flag 
10:53AM EDT


 

Airport Tracker/Info


-or-


 

Live Flight TrackerFlight Track Log ✈ VNR194 ✈ 06-Jun-2013 ✈ KPHF - KTEB

Flight Track Log - Related Links

Times and Time Zones

All times are in EDT time to prevent confusion due to time zone crossing. See the VNR194 flight status page for this flight to view local times or setup timezone preferences in your user account.

Time Position Orientation Groundspeed Altitude Reporting Facility
EDT Latitude Longitude Course Direction KTS MPH feet Rate Location/Type
11:53AM 37.1856 -76.4572 21° North 189 217 3,100  Level Washington Center
11:55AM 37.1850 -76.5356 270° West 211 243 4,000 360 Climbing Washington Center
11:56AM 37.1761 -76.6033 261° West 221 254 4,000 540 Level Washington Center
11:57AM 37.1817 -76.6814 275° West 226 260 5,200 1,560 Climbing Washington Center
11:58AM 37.2897 -76.9922 287° West  Level FlightAware Approximate
11:58AM 37.2019 -76.7547 289° West 226 260 7,100  Level Washington Center
11:59AM 37.2011 -76.8331 269° West 226 260 9,000 1,860 Climbing Washington Center
12:00PM 37.1983 -76.9111 267° West 226 260 10,900 1,680 Climbing Washington Center
12:01PM 37.1953 -76.9919 267° West 226 260 12,500 1,620 Climbing Washington Center
12:02PM 37.1942 -77.0728 269° West 236 272 14,300 1,620 Climbing Washington Center
12:03PM 37.1953 -77.1536 271° West 236 272 15,800 1,440 Climbing Washington Center
12:04PM 37.1919 -77.2422 267° West 236 272 17,200 1,320 Climbing Washington Center
12:05PM 37.1908 -77.3281 269° West 241 277 18,600 1,440 Climbing Washington Center
12:06PM 37.1894 -77.4169 269° West 251 289 20,100 1,440 Climbing Washington Center
12:07PM 37.1881 -77.5081 269° West 257 296 21,500 1,200 Climbing Washington Center
12:08PM 37.1844 -77.6017 267° West 262 302 22,600 1,140 Climbing Washington Center
12:09PM 37.1828 -77.6956 269° West 267 307 23,900 1,320 Climbing Washington Center
12:10PM 37.1811 -77.7894 269° West 275 316 25,300 1,020 Climbing Washington Center
12:11PM 37.2192 -77.8767 299° West 269 310 26,000 300 Climbing Washington Center
12:12PM 37.2717 -77.9719 305° West 289 333 26,000  Level Washington Center
12:13PM 37.3300 -78.0706 307° West 330 380 26,000 420 Level Washington Center
12:14PM 37.3944 -78.1772 307° West 345 397 26,900 960 Climbing Washington Center
12:15PM 37.4408 -78.2597 305° West 345 397 27,900 540 Climbing Washington Center
12:16PM 37.4947 -78.3586 305° West 345 397 28,000 480 Climbing Washington Center
12:17PM 37.5489 -78.4547 305° West 345 397 28,900 900 Climbing Washington Center
12:18PM 37.6028 -78.5486 306° West 340 391 29,900 1,080 Climbing Washington Center
12:19PM 37.6586 -78.6531 304° West 335 386 31,100 1,020 Climbing Washington Center
12:20PM 37.7106 -78.7419 306° West 329 379 32,000 420 Climbing Washington Center
12:21PM 37.7622 -78.8358 305° West 329 379 32,000  Level Washington Center
12:22PM 37.8100 -78.9247 304° West 335 386 32,000  Level Washington Center
12:23PM 37.8656 -79.0272 304° West 341 392 32,000  Level Washington Center
12:24PM 37.9228 -79.1325 305° West 352 405 32,000  Level Washington Center
12:25PM 37.9861 -79.2461 305° West 360 414 32,000  Level Washington Center
12:26PM 38.0267 -79.3561 295° West 360 414 32,000  Level Washington Center
12:27PM 38.0106 -79.4714 260° West 322 371 32,000  Level Washington Center
12:28PM 37.9358 -79.5228 208° Southwest 287 330 32,000 -360 Level Washington Center
12:29PM 37.8406 -79.4994 169° South 287 330 31,300 -540 Descending Washington Center
12:30PM 37.7711 -79.3906 129° Southeast 302 348 31,000 -180 Descending Washington Center
12:31PM 37.7631 -79.2458 94° East 328 377 31,000  Level Washington Center
12:32PM 37.7922 -79.1053 75° East 355 409 31,000  Level Washington Center
12:33PM 37.8303 -78.9467 73° East 400 460 31,000 -480 Level Washington Center
12:34PM 37.8633 -78.8033 74° East 412 474 30,100 -960 Descending Washington Center
12:35PM 37.8983 -78.6575 73° East 418 481 29,200 -1,560 Descending Washington Center
12:36PM 37.9314 -78.5089 74° East 429 494 27,000 -2,460 Descending Washington Center
12:37PM 37.9989 -78.3903 54° Northeast 412 474 24,300 -2,040 Descending Washington Center
12:38PM 38.0639 -78.2844 52° Northeast 398 458 23,000 -660 Descending Washington Center
12:39PM 38.0978 -78.1644 70° East 363 418 23,000  Level Washington Center
12:40PM 38.0858 -78.0319 96° East 357 411 23,000  Level Washington Center
12:41PM 38.0719 -77.8997 98° East 365 420 23,000  Level Washington Center
12:42PM 38.0578 -77.7647 98° East 377 434 23,000  Level Washington Center
12:43PM 38.0453 -77.6300 97° East 382 440 23,000 -180 Level Washington Center
12:44PM 38.0308 -77.4950 98° East 382 440 22,700 -960 Descending Washington Center
12:45PM 38.0203 -77.3656 96° East 397 457 21,100 -900 Descending Washington Center
12:46PM 38.0075 -77.2389 97° East 382 440 21,000 -60 Descending Washington Center
12:47PM 37.9947 -77.1122 97° East 370 426 21,000 -60 Level Washington Center
12:48PM 38.0006 -76.9806 87° East 370 426 20,900 -960 Descending Washington Center
12:49PM 38.0581 -76.8656 58° Northeast 357 411 19,100 -1,800 Descending Washington Center
12:50PM 38.1236 -76.7717 48° Northeast 351 404 17,400 -1,680 Descending Washington Center
12:51PM 38.1994 -76.6961 38° Northeast 343 395 15,800 -1,620 Descending Washington Center
12:52PM 38.2750 -76.6233 37° Northeast 338 389 14,200 -1,440 Descending Washington Center
12:53PM 38.3592 -76.5475 35° Northeast 333 383 13,000 -660 Descending Washington Center
12:54PM 38.4306 -76.4769 38° Northeast 328 377 13,000  Level Washington Center
12:55PM 38.5019 -76.4061 38° Northeast 328 377 13,000  Level Washington Center
12:56PM 38.5775 -76.3353 36° Northeast 328 377 13,000  Level Washington Center
12:57PM 38.6611 -76.2856 25° Northeast 328 377 13,000 -180 Level Washington Center
12:58PM 38.7531 -76.2597 12° North 322 371 12,700 -540 Descending Washington Center
12:59PM 38.8428 -76.2314 14° North 329 379 12,000 -360 Descending Washington Center
01:00PM 38.9325 -76.2028 14° North 329 379 12,000  Level Washington Center
01:01PM 39.0203 -76.1742 14° North 329 379 12,000  Level Washington Center
01:02PM 39.1164 -76.1453 13° North 335 386 12,000  Level Washington Center
01:03PM 39.2061 -76.1167 14° North 335 386 12,000  Level Washington Center
01:04PM 39.2917 -76.0742 21° North 330 380 12,000  Level Washington Center
01:06PM 39.4333 -75.9333 38° Northeast 330 380 12,000  Level Philadelphia TRACON
01:07PM 39.5000 -75.8667 38° Northeast 329 379 12,000  Level Philadelphia TRACON
01:08PM 39.5833 -75.8000 32° Northeast 328 377 12,000  Level Philadelphia TRACON
01:09PM 39.6500 -75.7333 38° Northeast 325 374 12,000  Level Philadelphia TRACON
01:10PM 39.7333 -75.6667 32° Northeast 325 374 12,000  Level Philadelphia TRACON
01:11PM 39.8000 -75.6000 38° Northeast 325 374 12,000  Level Philadelphia TRACON
01:12PM 39.8833 -75.5333 32° Northeast 322 371 12,000  Level Philadelphia TRACON
01:13PM 39.9500 -75.4667 37° Northeast 321 369 12,000  Level Philadelphia TRACON
01:14PM 40.0167 -75.4000 37° Northeast 320 368 12,000  Level Philadelphia TRACON
01:15PM 40.1000 -75.3167 37° Northeast 322 371 12,000 -120 Level Philadelphia TRACON
01:16PM 40.1667 -75.2500 37° Northeast 324 373 11,800 -480 Descending Philadelphia TRACON
01:17PM 40.2500 -75.1833 31° Northeast 332 382 11,100 -1,200 Descending Philadelphia TRACON
01:18PM 40.3500 -75.0667 42° Northeast 308 354 8,700 -1,500 Descending New York TRACON
01:19PM 40.4000 -75.0000 45° Northeast 286 329 7,200 -1,620 Descending New York TRACON
01:20PM 40.4500 -74.9333 45° Northeast 283 326 5,700 -1,620 Descending New York TRACON
01:21PM 40.5167 -74.9000 21° North 291 335 4,200 -840 Descending New York TRACON
01:22PM 40.5833 -74.8667 21° North 275 316 4,100 -120 Descending New York TRACON
01:23PM 40.6500 -74.8000 37° Northeast 275 316 4,000 -60 Descending New York TRACON
01:24PM 40.7000 -74.7333 45° Northeast 272 313 4,000 -540 Level New York TRACON
01:25PM 40.7500 -74.6667 45° Northeast 262 302 3,000 -540 Descending New York TRACON
01:26PM 40.8000 -74.6000 45° Northeast 267 307 3,000  Level New York TRACON
01:27PM 40.8500 -74.5167 52° Northeast 259 298 3,000  Level New York TRACON
01:28PM 40.9000 -74.4500 45° Northeast 253 291 3,100  Climbing New York TRACON
01:29PM 40.9333 -74.3833 56° Northeast 260 299 3,100  Level New York TRACON
01:30PM 40.9833 -74.3000 52° Northeast 258 297 3,100 -240 Level New York TRACON
01:31PM 41.0000 -74.2000 78° East 255 293 2,700 -540 Descending New York TRACON
01:32PM 41.0167 -74.1167 75° East 245 282 2,100 -600 Descending New York TRACON